South Palm Beach, Florida
Current Conditions -  °F | °C
As of 8:53 PM on Saturday 25 Oct 2014 (Local Time) from KPBI Reporting Station
Few Clouds Few Clouds  
Wind Chill: 23°   Ceiling: Unl
Heat Index: 23°   Visibility: 10mi
Dew Point: 18°   Wind: 7mph
Humidity: 73%   Direction: 340°NNW
Pressure: 29.93"   Gusts: NA
Location:  26.6941°N, 80.0379°W
Report Text: KPBI 260053Z 34006KT 10SM FEW040 23/18 A2993 RMK AO2 SLP135 T02280178
Loading
Personal Weather Stations






























Interactive Weather Map
Tropical Storm Tracking
New forecast layout! Learn more

10-Day Weather Forecast

Advertisements
Track Severe Weather on mobile